Aérodrome :
LOGIN :

S'inscrire | Disclaimer

   EN    FR    IT 

 










Légende :    VFR   VFR Marginal   IFR   IFR Intensif   IFR Très Intensif
Visi : 
Plafond : 
>= 8 km
>= 3000ft
5 à 8 km
1000 à 3000 ft
1500m à 5 km
500 à 1000 ft
800 à 1500m
200 à 500 ft
< 800m
< 200 ft
Symboles :   Orages  Brouillard  Fortes neiges  Fortes précipitations  Vent > 20 kt
SIGMETs :   Divers  Orages  Givrage  Turbulence  Onde Orograph.  Cendres Volcan.







- Altitude de l'aérodrome : 26 ft
- Code IATA : BIA
- Voir les cartes d'approche


LFKB - Bastia

DERNIER METAR :
  • 131630Z AUTO VRB02KT 5000 BR FEW015 17/15 Q1027 NOSIG

METARs EXPIRÉS :
  • 131600Z AUTO 14003KT 0650 R34///// FG SCT017 SCT023 17/16 Q1027 BECMG 9999 NSW
  • 131530Z AUTO 13004KT 9999 FEW012 SCT018 BKN023 18/16 Q1027 NOSIG
  • 131500Z AUTO 14005KT 9999 BKN014 BKN021 19/16 Q1027 BECMG SCT020 BKN260
  • 131430Z AUTO 14006KT 110V170 9999 BKN014 BKN021 19/16 Q1027 BECMG SCT020 BKN260
  • 131400Z AUTO 13007KT 9999 FEW020 19/16 Q1027 NOSIG
  • 131330Z AUTO 13007KT 9999 BKN019 20/17 Q1027 NOSIG

TAF TAF LFKB
Valide du 13 à 15h jusqu'au 14 à 15h UTC


131400Z 1315/1415 14008KT 9999 SCT020 BKN260 TX20/1412Z TN11/1403Z
BECMG 1317/1319 22006KT
TEMPO 1404/1415 BKN020
BECMG 1407/1409 10008KT
ATIS : +33 4 95 59 19 40
Pas de NOTAMs connus pour ce terrain.



MET'MAP, la Météo Aéronautique d'un coup d'oeil ! - Copyright ORBIFLY Décembre 2007 - Disclaimer

ORBIFLY MET'MAP TEAM :

Programmation & Développement : Alexandra Zaïnal
Conception & Développement : Baudouin d'Aumeries
Co-Programmation & Développement : Marc-Olivier Méhu
Soutien technique & logistique : Manuel Goepfert

Contact : metmap@orbifly.com




SOURCES & CREDITS :

   NOAA